createdAt,value
2023-04-01T00:00:04.916Z,98587.80
2023-04-01T00:03:57.603Z,98585.85
2023-04-01T00:07:25.313Z,98586.12
2023-04-01T00:10:58.862Z,98580.09
2023-04-01T00:14:26.163Z,98577.06
2023-04-01T00:17:53.457Z,98576.75
2023-04-01T00:21:21.864Z,98576.33
2023-04-01T00:24:49.882Z,98578.83
2023-04-01T00:28:17.590Z,98571.45
2023-04-01T00:31:44.586Z,98575.16
2023-04-01T00:35:13.780Z,98573.10
2023-04-01T00:38:44.148Z,98571.52
2023-04-01T00:42:13.567Z,98573.56
2023-04-01T00:45:42.832Z,98571.77
2023-04-01T00:49:17.011Z,98573.11
2023-04-01T00:52:45.615Z,98571.10
2023-04-01T00:56:18.065Z,98570.41
2023-04-01T01:00:01.536Z,98565.34
2023-04-01T01:03:30.007Z,98572.01
2023-04-01T01:07:06.703Z,98568.15
2023-04-01T01:10:37.578Z,98570.23
2023-04-01T01:14:15.359Z,98567.14
2023-04-01T01:17:55.068Z,98564.27
2023-04-01T01:21:57.622Z,98562.91
2023-04-01T01:25:43.356Z,98564.83
2023-04-01T01:29:20.126Z,98566.28
2023-04-01T01:33:09.981Z,98567.46
2023-04-01T01:36:40.448Z,98567.89
2023-04-01T01:40:14.405Z,98569.52
2023-04-01T01:43:46.849Z,98568.39
2023-04-01T01:47:17.019Z,98567.20
2023-04-01T01:50:48.285Z,98567.77
2023-04-01T01:54:20.037Z,98564.57
2023-04-01T01:57:48.536Z,98565.48
2023-04-01T02:01:24.797Z,98563.92
2023-04-01T02:04:55.375Z,98562.49
2023-04-01T02:08:27.749Z,98564.09
2023-04-01T02:12:01.000Z,98567.96
2023-04-01T02:15:34.502Z,98569.60
2023-04-01T02:19:08.756Z,98569.38
2023-04-01T02:22:36.396Z,98566.67
2023-04-01T02:26:11.131Z,98568.94
2023-04-01T02:29:38.508Z,98569.21
2023-04-01T02:33:08.673Z,98569.41
2023-04-01T02:36:37.420Z,98570.81
2023-04-01T02:40:07.682Z,98573.05
2023-04-01T02:43:36.221Z,98577.64
2023-04-01T02:47:03.276Z,98576.38
2023-04-01T02:50:30.645Z,98581.35
2023-04-01T02:53:58.689Z,98583.90
2023-04-01T02:57:25.545Z,98587.54
2023-04-01T03:00:52.908Z,98585.57
2023-04-01T03:04:20.108Z,98587.34
2023-04-01T03:07:46.980Z,98591.77
2023-04-01T03:11:15.041Z,98592.36
2023-04-01T03:14:43.014Z,98598.03
2023-04-01T03:18:10.261Z,98601.71
2023-04-01T03:21:37.388Z,98600.14
2023-04-01T03:25:05.398Z,98603.23
2023-04-01T03:28:32.909Z,98603.54
2023-04-01T03:32:00.716Z,98607.56
2023-04-01T03:35:28.110Z,98610.90
2023-04-01T03:38:54.783Z,98612.30
2023-04-01T03:42:24.618Z,98613.88
2023-04-01T03:45:52.813Z,98616.84
2023-04-01T03:49:20.151Z,98622.63
2023-04-01T03:52:47.412Z,98628.15
2023-04-01T03:56:14.835Z,98629.33
2023-04-01T03:59:42.404Z,98629.65
2023-04-01T04:03:10.110Z,98629.52
2023-04-01T04:06:37.902Z,98635.13
2023-04-01T04:10:05.308Z,98642.65
2023-04-01T04:13:32.124Z,98647.05
2023-04-01T04:17:01.637Z,98654.27
2023-04-01T04:20:28.461Z,98658.99
2023-04-01T04:23:56.200Z,98661.92
2023-04-01T04:27:24.525Z,98658.86
2023-04-01T04:30:57.880Z,98662.14
2023-04-01T04:34:25.008Z,98662.09
2023-04-01T04:37:51.983Z,98667.92
2023-04-01T04:41:20.893Z,98674.31
2023-04-01T04:44:49.408Z,98678.66
2023-04-01T04:48:19.994Z,98681.51
2023-04-01T04:51:47.863Z,98686.05
2023-04-01T04:55:16.374Z,98687.78
2023-04-01T04:58:45.952Z,98693.23
2023-04-01T05:02:16.391Z,98691.90
2023-04-01T05:05:50.366Z,98697.52
2023-04-01T05:09:17.531Z,98699.05
2023-04-01T05:12:44.824Z,98703.11
2023-04-01T05:16:19.334Z,98705.11
2023-04-01T05:19:46.745Z,98708.91
2023-04-01T05:23:14.379Z,98717.74
2023-04-01T05:26:41.385Z,98723.38
2023-04-01T05:30:10.123Z,98722.39
2023-04-01T05:33:57.084Z,98726.70
2023-04-01T05:37:24.658Z,98731.27
2023-04-01T05:40:52.041Z,98733.88
2023-04-01T05:44:19.593Z,98731.88
2023-04-01T05:48:07.602Z,98732.25
2023-04-01T05:51:38.707Z,98737.54
2023-04-01T05:55:06.920Z,98738.29
2023-04-01T05:58:33.681Z,98745.89
2023-04-01T06:02:01.301Z,98748.36
2023-04-01T06:05:32.940Z,98749.66
2023-04-01T06:09:05.048Z,98753.34
2023-04-01T06:12:46.067Z,98754.82
2023-04-01T06:16:23.744Z,98753.73
2023-04-01T06:19:59.575Z,98760.26
2023-04-01T06:23:49.590Z,98762.04
2023-04-01T06:27:28.600Z,98767.39
2023-04-01T06:31:01.706Z,98768.16
2023-04-01T06:35:01.732Z,98767.38
2023-04-01T06:39:03.197Z,98769.46
2023-04-01T06:42:51.437Z,98774.13
2023-04-01T06:46:48.179Z,98777.22
2023-04-01T06:50:45.182Z,98788.80
2023-04-01T06:54:40.062Z,98791.30
2023-04-01T06:58:13.928Z,98792.73
2023-04-01T07:01:46.660Z,98795.97
2023-04-01T07:05:17.174Z,98798.46
2023-04-01T07:08:47.829Z,98802.38
2023-04-01T07:12:24.132Z,98806.23
2023-04-01T07:16:21.594Z,98810.44
2023-04-01T07:19:51.297Z,98814.58
2023-04-01T07:23:24.516Z,98822.29
2023-04-01T07:27:23.854Z,98824.18
2023-04-01T07:31:05.242Z,98823.82
2023-04-01T07:34:38.045Z,98828.96
2023-04-01T07:38:17.326Z,98834.80
2023-04-01T07:41:53.937Z,98840.20
2023-04-01T07:45:27.914Z,98848.49
2023-04-01T07:49:03.162Z,98847.01
2023-04-01T07:52:38.288Z,98859.45
2023-04-01T07:56:17.203Z,98861.39
2023-04-01T07:59:56.448Z,98868.56
2023-04-01T08:03:59.160Z,98872.22
2023-04-01T08:07:33.920Z,98874.45
2023-04-01T08:11:43.600Z,98877.83
2023-04-01T08:15:38.629Z,98882.65
2023-04-01T08:19:26.727Z,98887.83
2023-04-01T08:23:02.124Z,98889.79
2023-04-01T08:26:42.512Z,98898.23
2023-04-01T08:30:22.904Z,98901.60
2023-04-01T08:33:52.383Z,98904.54
2023-04-01T08:37:23.465Z,98903.70
2023-04-01T08:41:04.952Z,98905.48
2023-04-01T08:45:17.110Z,98907.06
2023-04-01T08:49:22.871Z,98910.18
2023-04-01T08:53:01.718Z,98917.33
2023-04-01T08:56:34.083Z,98923.41
2023-04-01T09:00:08.243Z,98931.44
2023-04-01T09:04:16.983Z,98931.26
2023-04-01T09:07:55.862Z,98937.38
2023-04-01T09:11:45.449Z,98938.04
2023-04-01T09:15:25.942Z,98941.59
2023-04-01T09:19:14.518Z,98945.73
2023-04-01T09:22:57.683Z,98948.28
2023-04-01T09:26:40.377Z,98949.90
2023-04-01T09:30:36.562Z,98955.55
2023-04-01T09:34:27.718Z,98963.09
2023-04-01T09:38:14.845Z,98965.83
2023-04-01T09:41:59.783Z,98969.23
2023-04-01T09:45:48.989Z,98971.89
2023-04-01T09:49:40.394Z,98977.42
2023-04-01T09:53:22.934Z,98982.61
2023-04-01T09:57:20.294Z,98988.70
2023-04-01T10:01:29.373Z,98991.43
2023-04-01T10:05:22.457Z,98997.54
2023-04-01T10:09:34.431Z,98998.44
2023-04-01T10:13:44.869Z,99000.58
2023-04-01T10:17:56.549Z,99004.35
2023-04-01T10:21:47.377Z,99012.95
2023-04-01T10:26:00.404Z,99011.77
2023-04-01T10:30:07.703Z,99011.00
2023-04-01T10:34:03.661Z,99013.53
2023-04-01T10:37:57.323Z,99015.19
2023-04-01T10:41:53.400Z,99021.10
2023-04-01T10:45:56.064Z,99024.89
2023-04-01T10:49:49.472Z,99027.33
2023-04-01T10:53:42.293Z,99026.33
2023-04-01T10:57:53.770Z,99032.46
2023-04-01T11:02:22.742Z,99036.54
2023-04-01T11:06:38.992Z,99040.20
2023-04-01T11:10:42.895Z,99048.44
2023-04-01T11:14:42.943Z,99053.20
2023-04-01T11:18:42.218Z,99061.05
2023-04-01T11:22:33.791Z,99062.60
2023-04-01T11:26:19.981Z,99068.52
2023-04-01T11:30:32.006Z,99068.96
2023-04-01T11:34:05.852Z,99072.67
2023-04-01T11:37:47.666Z,99077.79
2023-04-01T11:41:44.594Z,99083.94
2023-04-01T11:45:41.547Z,99090.21
2023-04-01T11:49:28.196Z,99094.80
2023-04-01T11:53:17.517Z,99100.90
2023-04-01T11:57:00.609Z,99100.08
2023-04-01T12:00:54.502Z,99108.53
2023-04-01T12:04:39.665Z,99108.63
2023-04-01T12:08:17.071Z,99110.52
2023-04-01T12:11:55.210Z,99110.34
2023-04-01T12:15:29.189Z,99112.64
2023-04-01T12:19:00.789Z,99117.79
2023-04-01T12:22:38.127Z,99123.14
2023-04-01T12:26:36.380Z,99125.53
2023-04-01T12:30:36.072Z,99126.67
2023-04-01T12:34:27.515Z,99134.77
2023-04-01T12:38:09.160Z,99140.38
2023-04-01T12:41:49.017Z,99140.42
2023-04-01T12:45:32.668Z,99143.70
2023-04-01T12:49:22.905Z,99146.98
2023-04-01T12:53:04.463Z,99149.65
2023-04-01T12:56:41.461Z,99153.73
2023-04-01T13:00:26.813Z,99160.31
2023-04-01T13:04:14.022Z,99164.05
2023-04-01T13:07:55.902Z,99167.33
2023-04-01T13:11:37.982Z,99174.41
2023-04-01T13:15:29.271Z,99185.69
2023-04-01T13:19:04.865Z,99192.89
2023-04-01T13:22:38.822Z,99195.64
2023-04-01T13:26:16.525Z,99195.89
2023-04-01T13:29:47.270Z,99200.36
2023-04-01T13:33:29.693Z,99200.98
2023-04-01T13:37:10.994Z,99203.31
2023-04-01T13:40:59.577Z,99211.48
2023-04-01T13:44:38.357Z,99208.67
2023-04-01T13:48:29.195Z,99212.30
2023-04-01T13:52:06.604Z,99221.02
2023-04-01T13:55:52.443Z,99226.23
2023-04-01T13:59:58.082Z,99231.09
2023-04-01T14:03:40.872Z,99236.63
2023-04-01T14:07:25.060Z,99242.13
2023-04-01T14:11:02.923Z,99249.20
2023-04-01T14:14:44.002Z,99250.11
2023-04-01T14:18:36.195Z,99257.30
2023-04-01T14:22:16.589Z,99261.61
2023-04-01T14:26:10.991Z,99268.25
2023-04-01T14:29:50.610Z,99275.29
2023-04-01T14:33:36.968Z,99275.97
2023-04-01T14:37:20.576Z,99276.61
2023-04-01T14:41:03.249Z,99283.47
2023-04-01T14:44:56.797Z,99287.87
2023-04-01T14:48:33.184Z,99295.70
2023-04-01T14:52:12.463Z,99302.70
2023-04-01T14:55:52.805Z,99306.64
2023-04-01T14:59:31.490Z,99309.18
2023-04-01T15:03:05.248Z,99317.02
2023-04-01T15:06:43.921Z,99321.40
2023-04-01T15:10:23.648Z,99322.73
2023-04-01T15:14:22.374Z,99329.55
2023-04-01T15:17:59.822Z,99340.75
2023-04-01T15:21:51.604Z,99351.48
2023-04-01T15:25:36.369Z,99354.77
2023-04-01T15:29:35.461Z,99365.30
2023-04-01T15:33:28.906Z,99368.27
2023-04-01T15:37:04.898Z,99375.10
2023-04-01T15:40:41.033Z,99375.33
2023-04-01T15:44:29.185Z,99385.45
2023-04-01T15:48:07.328Z,99386.92
2023-04-01T15:51:58.580Z,99391.41
2023-04-01T15:55:35.070Z,99395.44
2023-04-01T15:59:24.628Z,99396.95
2023-04-01T16:03:13.270Z,99403.92
2023-04-01T16:06:55.746Z,99416.39
2023-04-01T16:10:34.894Z,99421.80
2023-04-01T16:14:15.682Z,99423.61
2023-04-01T16:18:05.326Z,99431.36
2023-04-01T16:21:48.950Z,99439.91
2023-04-01T16:25:33.013Z,99444.89
2023-04-01T16:29:10.134Z,99448.45
2023-04-01T16:32:47.305Z,99452.13
2023-04-01T16:36:29.261Z,99460.66
2023-04-01T16:40:17.674Z,99467.77
2023-04-01T16:43:56.171Z,99468.78
2023-04-01T16:47:30.573Z,99475.29
2023-04-01T16:51:01.906Z,99484.77
2023-04-01T16:54:39.613Z,99484.97
2023-04-01T16:58:12.734Z,99497.40
2023-04-01T17:01:52.399Z,99500.52
2023-04-01T17:05:19.737Z,99504.60
2023-04-01T17:09:05.035Z,99509.05
2023-04-01T17:12:47.334Z,99516.27
2023-04-01T17:17:05.458Z,99518.98
2023-04-01T17:20:50.430Z,99524.52
2023-04-01T17:24:39.667Z,99528.35
2023-04-01T17:28:24.317Z,99536.39
2023-04-01T17:32:08.272Z,99545.25
2023-04-01T17:35:42.315Z,99553.33
2023-04-01T17:39:33.601Z,99555.99
2023-04-01T17:43:13.088Z,99561.39
2023-04-01T17:47:03.391Z,99569.73
2023-04-01T17:50:55.586Z,99575.30
2023-04-01T17:54:30.273Z,99583.33
2023-04-01T17:58:08.444Z,99583.83
2023-04-01T18:01:59.398Z,99592.91
2023-04-01T18:05:36.961Z,99602.52
2023-04-01T18:09:10.346Z,99605.42
2023-04-01T18:13:04.677Z,99606.86
2023-04-01T18:16:53.437Z,99614.08
2023-04-01T18:20:43.256Z,99617.76
2023-04-01T18:24:21.727Z,99626.90
2023-04-01T18:27:54.266Z,99630.29
2023-04-01T18:31:27.007Z,99634.55
2023-04-01T18:35:04.456Z,99636.70
2023-04-01T18:38:40.064Z,99645.15
2023-04-01T18:42:19.103Z,99649.52
2023-04-01T18:45:54.550Z,99652.02
2023-04-01T18:49:33.310Z,99656.79
2023-04-01T18:53:14.887Z,99661.99
2023-04-01T18:56:47.490Z,99670.81
2023-04-01T19:00:23.560Z,99673.73
2023-04-01T19:04:03.288Z,99679.53
2023-04-01T19:07:48.581Z,99683.27
2023-04-01T19:11:33.019Z,99690.14
2023-04-01T19:15:31.348Z,99692.23
2023-04-01T19:19:23.764Z,99697.71
2023-04-01T19:23:16.473Z,99701.97
2023-04-01T19:26:50.733Z,99710.91
2023-04-01T19:30:51.558Z,99717.31
2023-04-01T19:34:38.827Z,99725.55
2023-04-01T19:38:15.814Z,99729.45
2023-04-01T19:41:55.351Z,99732.11
2023-04-01T19:45:39.009Z,99737.45
2023-04-01T19:49:38.928Z,99741.65
2023-04-01T19:53:26.960Z,99748.36
2023-04-01T19:57:04.656Z,99749.68
2023-04-01T20:00:39.745Z,99750.89
2023-04-01T20:04:11.388Z,99755.27
2023-04-01T20:07:46.710Z,99758.79
2023-04-01T20:11:37.838Z,99768.13
2023-04-01T20:15:21.308Z,99775.30
2023-04-01T20:18:57.547Z,99783.83
2023-04-01T20:22:37.191Z,99788.98
2023-04-01T20:26:11.830Z,99790.23
2023-04-01T20:30:06.979Z,99795.97
2023-04-01T20:34:08.843Z,99798.91
2023-04-01T20:37:43.723Z,99802.55
2023-04-01T20:41:23.358Z,99801.58
2023-04-01T20:45:00.926Z,99806.89
2023-04-01T20:49:04.314Z,99807.74
2023-04-01T20:52:40.938Z,99809.50
2023-04-01T20:56:19.011Z,99812.40
2023-04-01T21:00:01.700Z,99814.59
2023-04-01T21:03:41.530Z,99819.18
2023-04-01T21:07:31.754Z,99824.49
2023-04-01T21:11:11.701Z,99826.98
2023-04-01T21:14:59.952Z,99832.23
2023-04-01T21:18:45.981Z,99835.30
2023-04-01T21:22:40.906Z,99841.48
2023-04-01T21:26:23.614Z,99846.05
2023-04-01T21:30:02.154Z,99850.08
2023-04-01T21:33:48.596Z,99851.91
2023-04-01T21:37:46.476Z,99859.92
2023-04-01T21:41:23.365Z,99858.57
2023-04-01T21:45:07.163Z,99864.19
2023-04-01T21:49:14.808Z,99867.85
2023-04-01T21:53:27.416Z,99868.15
2023-04-01T21:57:37.431Z,99874.84
2023-04-01T22:01:25.163Z,99873.45
2023-04-01T22:05:00.760Z,99878.38
2023-04-01T22:08:46.506Z,99880.13
2023-04-01T22:12:20.169Z,99883.38
2023-04-01T22:16:12.188Z,99882.84
2023-04-01T22:19:52.229Z,99887.02
2023-04-01T22:23:28.829Z,99886.69
2023-04-01T22:27:02.321Z,99891.02
2023-04-01T22:30:35.760Z,99895.92
2023-04-01T22:34:14.278Z,99898.80
2023-04-01T22:37:55.657Z,99899.98
2023-04-01T22:41:36.573Z,99904.63
2023-04-01T22:45:23.305Z,99906.92
2023-04-01T22:48:59.318Z,99912.60
2023-04-01T22:52:35.888Z,99916.04
2023-04-01T22:56:10.488Z,99921.45
2023-04-01T22:59:48.773Z,99924.40
2023-04-01T23:03:25.558Z,99925.23
2023-04-01T23:06:58.755Z,99927.80
2023-04-01T23:10:33.275Z,99927.80
2023-04-01T23:14:19.653Z,99934.43
2023-04-01T23:18:02.215Z,99936.36
2023-04-01T23:21:38.594Z,99939.05
2023-04-01T23:25:28.407Z,99943.44
2023-04-01T23:29:00.900Z,99943.48
2023-04-01T23:32:33.067Z,99944.42
2023-04-01T23:36:09.303Z,99950.43
2023-04-01T23:39:40.232Z,99954.58
2023-04-01T23:43:27.576Z,99958.84
2023-04-01T23:47:04.530Z,99961.58
2023-04-01T23:50:44.620Z,99969.29
2023-04-01T23:54:23.240Z,99973.26
2023-04-01T23:58:12.775Z,99977.77
